Bay Wolf — WDF4104 — position and weather

sailwx.info

Track history (hours):
 
Tides and Currents Weather Stations Pressure Air Temp Water Temp Dewpoint Dewpoint Depression Visibility Wind Speed Wind Dir Waves Ship Positions

Bay Wolf

Owner: Captain Kirk's San francisco Sailing, LLC, Palo Alto, CA. More information available from US FCC via Universal Licensing System and Coast Guard Vessel Documentation Center.

Last reported at 2018-Jul-23 00:44 UTC. Time now 2018-Jul-23 04:12 UTC.
Position N 37°52' W 122°30'.

Length 16 m.

Type: Sailing vessel. MMSI: 367448040.

Date/timePositionNaut miles runAvg speedWind from/ knotsBaromVisibWave heightAir tempDewpointWater temp
2018-Jul-23 00:44N 37°52' W 122°30'0 0.2
2018-Jul-23 00:29N 37°52' W 122°30'2 4.2
2018-Jul-22 23:59N 37°52' W 122°27'2 3.4
2018-Jul-22 23:30N 37°52' W 122°25'2 4.7
2018-Jul-22 23:00N 37°49' W 122°26'2 4.7
2018-Jul-22 22:30N 37°50' W 122°29'2 4.4
2018-Jul-22 21:57N 37°52' W 122°29'0 0.6
2018-Jul-22 21:28N 37°52' W 122°30'0 0.0
2018-Jul-22 20:52N 37°52' W 122°30'1 1.4
2018-Jul-22 20:29N 37°52' W 122°29'2 4.8
2018-Jul-22 20:00N 37°50' W 122°27'2 3.6
2018-Jul-22 19:30N 37°49' W 122°29'2 3.2
2018-Jul-22 19:00N 37°49' W 122°31'1 1.4
2018-Jul-22 18:30N 37°48' W 122°30'2 4.9
2018-Jul-22 18:00N 37°50' W 122°28'2 3.8
2018-Jul-22 17:29N 37°52' W 122°30'0 0.0
2018-Jul-22 16:59N 37°52' W 122°30'0 0.0
2018-Jul-22 00:32N 37°52' W 122°30'0 0.0
2018-Jul-22 00:29N 37°52' W 122°30'2 3.7
2018-Jul-22 00:00N 37°52' W 122°28'2 3.5
2018-Jul-21 23:28N 37°53' W 122°26'1 2.5
2018-Jul-21 23:00N 37°52' W 122°25'2 4.3
2018-Jul-21 22:30N 37°50' W 122°25'2 4.4
2018-Jul-21 22:00N 37°48' W 122°24'2 3.1
2018-Jul-21 21:30N 37°47' W 122°23'0 0.2
2018-Jul-21 20:59N 37°47' W 122°23'1 1.1
2018-Jul-21 20:30N 37°47' W 122°23'2 4.2
2018-Jul-21 20:00N 37°49' W 122°21'3 5.2
2018-Jul-21 19:30N 37°51' W 122°23'3 5.5
2018-Jul-21 19:00N 37°52' W 122°27'2 4.3
2018-Jul-21 18:30N 37°50' W 122°28'1 2.6
2018-Jul-21 18:00N 37°49' W 122°29'4 7.3
2018-Jul-21 17:30N 37°49' W 122°24'2 3.1
2018-Jul-21 16:55N 37°47' W 122°23'1 3.4
2018-Jul-21 16:30N 37°48' W 122°24'4 8.2
2018-Jul-21 15:59N 37°51' W 122°28'2 0.1
2018-Jul-21 00:07N 37°52' W 122°30'0 3.1
2018-Jul-21 00:00N 37°52' W 122°29'4 7.8
2018-Jul-20 23:30N 37°50' W 122°25'3 6.5
2018-Jul-20 22:59N 37°47' W 122°23'1 2.9
2018-Jul-20 22:30N 37°47' W 122°22'3 6.1
2018-Jul-20 22:00N 37°50' W 122°23'3 7.0
2018-Jul-20 21:30N 37°52' W 122°27'3 5.4
2018-Jul-20 21:00N 37°49' W 122°26'3 5.5
2018-Jul-20 20:30N 37°48' W 122°24'1 2.1
2018-Jul-20 19:58N 37°47' W 122°23'0 0.0
2018-Jul-20 19:28N 37°47' W 122°23'1 1.4
2018-Jul-20 19:00N 37°48' W 122°23'3 5.8
2018-Jul-20 18:29N 37°48' W 122°27'0 0.6
2018-Jul-20 17:59N 37°49' W 122°26'2 4.2
2018-Jul-20 17:28N 37°48' W 122°29'1 1.1
2018-Jul-20 17:00N 37°49' W 122°29'2 3.2
2018-Jul-20 16:28N 37°48' W 122°27'0 0.7
2018-Jul-20 16:00N 37°49' W 122°27'4 7.2
2018-Jul-20 15:30N 37°52' W 122°29'1 0.1
2018-Jul-20 01:21N 37°52' W 122°30'2 5.3
2018-Jul-20 00:59N 37°51' W 122°28'3 6.3
2018-Jul-20 00:30N 37°49' W 122°25'3 5.2
2018-Jul-20 00:00N 37°47' W 122°23'2 3.7
2018-Jul-19 23:30N 37°46' W 122°21'2 4.8
2018-Jul-19 23:00N 37°48' W 122°21'3 6.9
2018-Jul-19 22:30N 37°51' W 122°23'2 4.4
2018-Jul-19 21:58N 37°52' W 122°26'0 0.0
2018-Jul-19 21:28N 37°52' W 122°26'0 0.0
2018-Jul-19 20:58N 37°52' W 122°26'0 0.0
2018-Jul-19 20:28N 37°52' W 122°26'0 0.0
2018-Jul-19 20:00N 37°52' W 122°26'3 5.9
2018-Jul-19 19:30N 37°50' W 122°28'1 2.8
2018-Jul-19 19:00N 37°49' W 122°27'2 4.8
2018-Jul-19 18:30N 37°49' W 122°24'2 3.4
2018-Jul-19 17:59N 37°47' W 122°23'0 0.0
2018-Jul-19 17:29N 37°47' W 122°23'2 4.8
2018-Jul-19 17:00N 37°49' W 122°25'4 7.1
2018-Jul-19 16:30N 37°51' W 122°28'2 0.1
2018-Jul-19 00:43N 37°52' W 122°30'0 0.0
2018-Jul-19 00:30N 37°52' W 122°30'2 4.4
2018-Jul-19 00:00N 37°51' W 122°27'3 6.1
2018-Jul-18 23:30N 37°49' W 122°24'0 1.0
2018-Jul-18 23:00N 37°49' W 122°24'3 6.5
2018-Jul-18 22:29N 37°49' W 122°28'1 2.8
2018-Jul-18 22:00N 37°50' W 122°28'2 4.0
2018-Jul-18 21:30N 37°52' W 122°30'0 0.0
2018-Jul-18 21:00N 37°52' W 122°30'3 5.7
2018-Jul-18 20:30N 37°51' W 122°27'3 5.6
2018-Jul-18 20:00N 37°49' W 122°24'0 0.3
2018-Jul-18 19:30N 37°49' W 122°24'2 4.6
2018-Jul-18 19:00N 37°49' W 122°27'1 3.0
2018-Jul-18 18:30N 37°50' W 122°28'2 4.9
2018-Jul-18 18:00N 37°52' W 122°30'0 0.1
2018-Jul-18 17:24N 37°52' W 122°30'0 0.0
2018-Jul-18 16:57N 37°52' W 122°30'0 0.0
2018-Jul-18 00:12N 37°52' W 122°30'1 4.5
2018-Jul-18 00:00N 37°52' W 122°29'4 8.4
2018-Jul-17 23:30N 37°49' W 122°24'2 4.5
2018-Jul-17 22:57N 37°47' W 122°23'1 1.6
2018-Jul-17 22:30N 37°48' W 122°23'4 7.1
2018-Jul-17 22:00N 37°51' W 122°24'2 3.3
2018-Jul-17 21:28N 37°52' W 122°26'0 0.0
2018-Jul-17 20:58N 37°52' W 122°26'0 0.0
2018-Jul-17 20:28N 37°52' W 122°26'0 0.0
2018-Jul-17 19:58N 37°52' W 122°26'2 5.0
2018-Jul-17 19:30N 37°50' W 122°28'1 2.8
2018-Jul-17 19:00N 37°49' W 122°27'3 6.6
2018-Jul-17 18:29N 37°48' W 122°23'1 1.5
2018-Jul-17 18:00N 37°47' W 122°23'2 3.2
2018-Jul-17 17:30N 37°48' W 122°24'4 8.1
2018-Jul-17 17:00N 37°51' W 122°28'2 0.1
2018-Jul-17 04:04N 37°52' W 122°30'0 0.7
2018-Jul-17 03:59N 37°52' W 122°30'4 8.1
2018-Jul-17 03:30N 37°50' W 122°25'4 6.5
2018-Jul-17 02:57N 37°47' W 122°23'1 1.7
2018-Jul-17 02:29N 37°48' W 122°23'2 4.9
2018-Jul-17 02:00N 37°49' W 122°26'2 3.0
2018-Jul-17 01:30N 37°49' W 122°28'3 6.0
2018-Jul-17 01:00N 37°49' W 122°24'2 3.6
2018-Jul-17 00:29N 37°47' W 122°23'0 0.0
2018-Jul-16 23:29N 37°47' W 122°23'0 0.0
2018-Jul-16 22:59N 37°47' W 122°23'0 0.4
2018-Jul-16 22:30N 37°47' W 122°23'4 8.1
2018-Jul-16 21:59N 37°50' W 122°27'3 6.3
2018-Jul-16 21:29N 37°52' W 122°30'0 0.2
2018-Jul-16 21:00N 37°52' W 122°30'3 5.8
2018-Jul-16 20:30N 37°51' W 122°26'1 2.7
2018-Jul-16 20:00N 37°50' W 122°25'3 5.6
2018-Jul-16 19:30N 37°49' W 122°29'2 4.7
2018-Jul-16 18:59N 37°48' W 122°32'1 1.5
2018-Jul-16 18:25N 37°49' W 122°32'1 3.1
2018-Jul-16 18:00N 37°49' W 122°31'2 4.8
2018-Jul-16 17:30N 37°51' W 122°28'2 3.2
2018-Jul-16 16:57N 37°52' W 122°30'0 0.0
2018-Jul-16 16:30N 37°52' W 122°30'0 0.0
2018-Jul-16 00:47N 37°52' W 122°30'0 0.0
2018-Jul-16 00:30N 37°52' W 122°30'2 3.8
2018-Jul-16 00:00N 37°52' W 122°27'2 4.0
2018-Jul-15 23:30N 37°54' W 122°26'2 3.1
2018-Jul-15 23:00N 37°52' W 122°25'3 6.5
2018-Jul-15 22:30N 37°49' W 122°26'2 3.8
2018-Jul-15 22:00N 37°50' W 122°28'3 4.1
2018-Jul-15 21:22N 37°52' W 122°30'0 0.0
2018-Jul-15 21:00N 37°52' W 122°30'2 4.8
2018-Jul-15 20:30N 37°52' W 122°27'1 2.2
2018-Jul-15 20:00N 37°52' W 122°25'3 5.6
2018-Jul-15 19:30N 37°50' W 122°25'2 4.9
2018-Jul-15 19:00N 37°49' W 122°28'2 3.0
2018-Jul-15 18:30N 37°51' W 122°28'2 3.5
2018-Jul-15 17:59N 37°52' W 122°30'0 0.0
2018-Jul-15 03:59N 37°52' W 122°30'2 3.8
2018-Jul-15 03:30N 37°52' W 122°27'2 3.2
2018-Jul-15 03:00N 37°52' W 122°26'2 4.6
2018-Jul-15 02:30N 37°50' W 122°25'2 3.8
2018-Jul-15 02:00N 37°49' W 122°27'1 2.4
2018-Jul-15 01:30N 37°50' W 122°28'2 4.2
2018-Jul-15 00:55N 37°52' W 122°30'0 0.0
2018-Jul-15 00:27N 37°52' W 122°30'2 4.2
2018-Jul-15 00:00N 37°51' W 122°28'1 1.9
2018-Jul-14 23:30N 37°52' W 122°27'2 4.1
2018-Jul-14 23:00N 37°50' W 122°27'2 3.7
2018-Jul-14 22:30N 37°49' W 122°29'3 5.5
2018-Jul-14 22:00N 37°51' W 122°29'1 2.3
2018-Jul-14 21:29N 37°52' W 122°30'0 0.0
2018-Jul-14 20:59N 37°52' W 122°30'2 4.6
2018-Jul-14 20:30N 37°52' W 122°27'1 1.9
2018-Jul-14 20:00N 37°53' W 122°26'1 2.0
2018-Jul-14 19:28N 37°52' W 122°25'2 4.3
2018-Jul-14 19:01N 37°50' W 122°25'3 5.7
2018-Jul-14 18:30N 37°51' W 122°28'1 2.2
2018-Jul-14 17:58N 37°52' W 122°30'0 0.0
2018-Jul-14 03:36N 37°52' W 122°30'0 2.2
2018-Jul-14 03:30N 37°52' W 122°30'3 5.9
2018-Jul-14 03:00N 37°50' W 122°26'4 7.0
2018-Jul-14 02:29N 37°48' W 122°23'1 1.4
2018-Jul-14 01:58N 37°47' W 122°23'2 4.6
2018-Jul-14 01:30N 37°48' W 122°21'2 3.5
2018-Jul-14 01:00N 37°50' W 122°22'3 5.1
2018-Jul-14 00:30N 37°50' W 122°25'3 4.8
2018-Jul-13 23:59N 37°51' W 122°28'1 2.8
2018-Jul-13 23:30N 37°49' W 122°29'3 5.2
2018-Jul-13 23:00N 37°49' W 122°26'3 4.9
2018-Jul-13 22:28N 37°47' W 122°23'0 0.0
2018-Jul-13 21:55N 37°47' W 122°23'0 0.0
2018-Jul-13 21:28N 37°47' W 122°23'2 3.9
2018-Jul-13 21:00N 37°49' W 122°24'4 8.5
2018-Jul-13 20:30N 37°51' W 122°28'1 2.9
2018-Jul-13 19:59N 37°52' W 122°30'0 0.0
2018-Jul-13 02:30N 37°52' W 122°30'0 0.0
2018-Jul-13 02:00N 37°52' W 122°30'2 4.2
2018-Jul-13 01:30N 37°51' W 122°28'2 3.1
2018-Jul-13 00:58N 37°50' W 122°29'  
Track history (hours):
 
Tides and Currents Weather Stations Pressure Air Temp Water Temp Dewpoint Dewpoint Depression Visibility Wind Speed Wind Dir Waves Ship Positions

Bay Wolf

Owner: Captain Kirk's San francisco Sailing, LLC, Palo Alto, CA. More information available from US FCC via Universal Licensing System and Coast Guard Vessel Documentation Center.

Last reported at 2018-Jul-23 00:44 UTC. Time now 2018-Jul-23 04:12 UTC.
Position N 37°52' W 122°30'.

Length 16 m.

Type: Sailing vessel. MMSI: 367448040.

Date/timePositionNaut miles runAvg speedWind from/ knotsBaromVisibWave heightAir tempDewpointWater temp
2018-Jul-23 00:44N 37°52' W 122°30'0 0.2
2018-Jul-23 00:29N 37°52' W 122°30'2 4.2
2018-Jul-22 23:59N 37°52' W 122°27'2 3.4
2018-Jul-22 23:30N 37°52' W 122°25'2 4.7
2018-Jul-22 23:00N 37°49' W 122°26'2 4.7
2018-Jul-22 22:30N 37°50' W 122°29'2 4.4
2018-Jul-22 21:57N 37°52' W 122°29'0 0.6
2018-Jul-22 21:28N 37°52' W 122°30'0 0.0
2018-Jul-22 20:52N 37°52' W 122°30'1 1.4
2018-Jul-22 20:29N 37°52' W 122°29'2 4.8
2018-Jul-22 20:00N 37°50' W 122°27'2 3.6
2018-Jul-22 19:30N 37°49' W 122°29'2 3.2
2018-Jul-22 19:00N 37°49' W 122°31'1 1.4
2018-Jul-22 18:30N 37°48' W 122°30'2 4.9
2018-Jul-22 18:00N 37°50' W 122°28'2 3.8
2018-Jul-22 17:29N 37°52' W 122°30'0 0.0
2018-Jul-22 16:59N 37°52' W 122°30'0 0.0
2018-Jul-22 00:32N 37°52' W 122°30'0 0.0
2018-Jul-22 00:29N 37°52' W 122°30'2 3.7
2018-Jul-22 00:00N 37°52' W 122°28'2 3.5
2018-Jul-21 23:28N 37°53' W 122°26'1 2.5
2018-Jul-21 23:00N 37°52' W 122°25'2 4.3
2018-Jul-21 22:30N 37°50' W 122°25'2 4.4
2018-Jul-21 22:00N 37°48' W 122°24'2 3.1
2018-Jul-21 21:30N 37°47' W 122°23'0 0.2
2018-Jul-21 20:59N 37°47' W 122°23'1 1.1
2018-Jul-21 20:30N 37°47' W 122°23'2 4.2
2018-Jul-21 20:00N 37°49' W 122°21'3 5.2
2018-Jul-21 19:30N 37°51' W 122°23'3 5.5
2018-Jul-21 19:00N 37°52' W 122°27'2 4.3
2018-Jul-21 18:30N 37°50' W 122°28'1 2.6
2018-Jul-21 18:00N 37°49' W 122°29'4 7.3
2018-Jul-21 17:30N 37°49' W 122°24'2 3.1
2018-Jul-21 16:55N 37°47' W 122°23'1 3.4
2018-Jul-21 16:30N 37°48' W 122°24'4 8.2
2018-Jul-21 15:59N 37°51' W 122°28'2 0.1
2018-Jul-21 00:07N 37°52' W 122°30'0 3.1
2018-Jul-21 00:00N 37°52' W 122°29'4 7.8
2018-Jul-20 23:30N 37°50' W 122°25'3 6.5
2018-Jul-20 22:59N 37°47' W 122°23'1 2.9
2018-Jul-20 22:30N 37°47' W 122°22'3 6.1
2018-Jul-20 22:00N 37°50' W 122°23'3 7.0
2018-Jul-20 21:30N 37°52' W 122°27'3 5.4
2018-Jul-20 21:00N 37°49' W 122°26'3 5.5
2018-Jul-20 20:30N 37°48' W 122°24'1 2.1
2018-Jul-20 19:58N 37°47' W 122°23'0 0.0
2018-Jul-20 19:28N 37°47' W 122°23'1 1.4
2018-Jul-20 19:00N 37°48' W 122°23'3 5.8
2018-Jul-20 18:29N 37°48' W 122°27'0 0.6
2018-Jul-20 17:59N 37°49' W 122°26'2 4.2
2018-Jul-20 17:28N 37°48' W 122°29'1 1.1
2018-Jul-20 17:00N 37°49' W 122°29'2 3.2
2018-Jul-20 16:28N 37°48' W 122°27'0 0.7
2018-Jul-20 16:00N 37°49' W 122°27'4 7.2
2018-Jul-20 15:30N 37°52' W 122°29'1 0.1
2018-Jul-20 01:21N 37°52' W 122°30'2 5.3
2018-Jul-20 00:59N 37°51' W 122°28'3 6.3
2018-Jul-20 00:30N 37°49' W 122°25'3 5.2
2018-Jul-20 00:00N 37°47' W 122°23'2 3.7
2018-Jul-19 23:30N 37°46' W 122°21'2 4.8
2018-Jul-19 23:00N 37°48' W 122°21'3 6.9
2018-Jul-19 22:30N 37°51' W 122°23'2 4.4
2018-Jul-19 21:58N 37°52' W 122°26'0 0.0
2018-Jul-19 21:28N 37°52' W 122°26'0 0.0
2018-Jul-19 20:58N 37°52' W 122°26'0 0.0
2018-Jul-19 20:28N 37°52' W 122°26'0 0.0
2018-Jul-19 20:00N 37°52' W 122°26'3 5.9
2018-Jul-19 19:30N 37°50' W 122°28'1 2.8
2018-Jul-19 19:00N 37°49' W 122°27'2 4.8
2018-Jul-19 18:30N 37°49' W 122°24'2 3.4
2018-Jul-19 17:59N 37°47' W 122°23'0 0.0
2018-Jul-19 17:29N 37°47' W 122°23'2 4.8
2018-Jul-19 17:00N 37°49' W 122°25'4 7.1
2018-Jul-19 16:30N 37°51' W 122°28'2 0.1
2018-Jul-19 00:43N 37°52' W 122°30'0 0.0
2018-Jul-19 00:30N 37°52' W 122°30'2 4.4
2018-Jul-19 00:00N 37°51' W 122°27'3 6.1
2018-Jul-18 23:30N 37°49' W 122°24'0 1.0
2018-Jul-18 23:00N 37°49' W 122°24'3 6.5
2018-Jul-18 22:29N 37°49' W 122°28'1 2.8
2018-Jul-18 22:00N 37°50' W 122°28'2 4.0
2018-Jul-18 21:30N 37°52' W 122°30'0 0.0
2018-Jul-18 21:00N 37°52' W 122°30'3 5.7
2018-Jul-18 20:30N 37°51' W 122°27'3 5.6
2018-Jul-18 20:00N 37°49' W 122°24'0 0.3
2018-Jul-18 19:30N 37°49' W 122°24'2 4.6
2018-Jul-18 19:00N 37°49' W 122°27'1 3.0
2018-Jul-18 18:30N 37°50' W 122°28'2 4.9
2018-Jul-18 18:00N 37°52' W 122°30'0 0.1
2018-Jul-18 17:24N 37°52' W 122°30'0 0.0
2018-Jul-18 16:57N 37°52' W 122°30'0 0.0
2018-Jul-18 00:12N 37°52' W 122°30'1 4.5
2018-Jul-18 00:00N 37°52' W 122°29'4 8.4
2018-Jul-17 23:30N 37°49' W 122°24'2 4.5
2018-Jul-17 22:57N 37°47' W 122°23'1 1.6
2018-Jul-17 22:30N 37°48' W 122°23'4 7.1
2018-Jul-17 22:00N 37°51' W 122°24'2 3.3
2018-Jul-17 21:28N 37°52' W 122°26'0 0.0
2018-Jul-17 20:58N 37°52' W 122°26'0 0.0
2018-Jul-17 20:28N 37°52' W 122°26'0 0.0
2018-Jul-17 19:58N 37°52' W 122°26'2 5.0
2018-Jul-17 19:30N 37°50' W 122°28'1 2.8
2018-Jul-17 19:00N 37°49' W 122°27'3 6.6
2018-Jul-17 18:29N 37°48' W 122°23'1 1.5
2018-Jul-17 18:00N 37°47' W 122°23'2 3.2
2018-Jul-17 17:30N 37°48' W 122°24'4 8.1
2018-Jul-17 17:00N 37°51' W 122°28'2 0.1
2018-Jul-17 04:04N 37°52' W 122°30'0 0.7
2018-Jul-17 03:59N 37°52' W 122°30'4 8.1
2018-Jul-17 03:30N 37°50' W 122°25'4 6.5
2018-Jul-17 02:57N 37°47' W 122°23'1 1.7
2018-Jul-17 02:29N 37°48' W 122°23'2 4.9
2018-Jul-17 02:00N 37°49' W 122°26'2 3.0
2018-Jul-17 01:30N 37°49' W 122°28'3 6.0
2018-Jul-17 01:00N 37°49' W 122°24'2 3.6
2018-Jul-17 00:29N 37°47' W 122°23'0 0.0
2018-Jul-16 23:29N 37°47' W 122°23'0 0.0
2018-Jul-16 22:59N 37°47' W 122°23'0 0.4
2018-Jul-16 22:30N 37°47' W 122°23'4 8.1
2018-Jul-16 21:59N 37°50' W 122°27'3 6.3
2018-Jul-16 21:29N 37°52' W 122°30'0 0.2
2018-Jul-16 21:00N 37°52' W 122°30'3 5.8
2018-Jul-16 20:30N 37°51' W 122°26'1 2.7
2018-Jul-16 20:00N 37°50' W 122°25'3 5.6
2018-Jul-16 19:30N 37°49' W 122°29'2 4.7
2018-Jul-16 18:59N 37°48' W 122°32'1 1.5
2018-Jul-16 18:25N 37°49' W 122°32'1 3.1
2018-Jul-16 18:00N 37°49' W 122°31'2 4.8
2018-Jul-16 17:30N 37°51' W 122°28'2 3.2
2018-Jul-16 16:57N 37°52' W 122°30'0 0.0
2018-Jul-16 16:30N 37°52' W 122°30'0 0.0
2018-Jul-16 00:47N 37°52' W 122°30'0 0.0
2018-Jul-16 00:30N 37°52' W 122°30'2 3.8
2018-Jul-16 00:00N 37°52' W 122°27'2 4.0
2018-Jul-15 23:30N 37°54' W 122°26'2 3.1
2018-Jul-15 23:00N 37°52' W 122°25'3 6.5
2018-Jul-15 22:30N 37°49' W 122°26'2 3.8
2018-Jul-15 22:00N 37°50' W 122°28'3 4.1
2018-Jul-15 21:22N 37°52' W 122°30'0 0.0
2018-Jul-15 21:00N 37°52' W 122°30'2 4.8
2018-Jul-15 20:30N 37°52' W 122°27'1 2.2
2018-Jul-15 20:00N 37°52' W 122°25'3 5.6
2018-Jul-15 19:30N 37°50' W 122°25'2 4.9
2018-Jul-15 19:00N 37°49' W 122°28'2 3.0
2018-Jul-15 18:30N 37°51' W 122°28'2 3.5
2018-Jul-15 17:59N 37°52' W 122°30'0 0.0
2018-Jul-15 03:59N 37°52' W 122°30'2 3.8
2018-Jul-15 03:30N 37°52' W 122°27'2 3.2
2018-Jul-15 03:00N 37°52' W 122°26'2 4.6
2018-Jul-15 02:30N 37°50' W 122°25'2 3.8
2018-Jul-15 02:00N 37°49' W 122°27'1 2.4
2018-Jul-15 01:30N 37°50' W 122°28'2 4.2
2018-Jul-15 00:55N 37°52' W 122°30'0 0.0
2018-Jul-15 00:27N 37°52' W 122°30'2 4.2
2018-Jul-15 00:00N 37°51' W 122°28'1 1.9
2018-Jul-14 23:30N 37°52' W 122°27'2 4.1
2018-Jul-14 23:00N 37°50' W 122°27'2 3.7
2018-Jul-14 22:30N 37°49' W 122°29'3 5.5
2018-Jul-14 22:00N 37°51' W 122°29'1 2.3
2018-Jul-14 21:29N 37°52' W 122°30'0 0.0
2018-Jul-14 20:59N 37°52' W 122°30'2 4.6
2018-Jul-14 20:30N 37°52' W 122°27'1 1.9
2018-Jul-14 20:00N 37°53' W 122°26'1 2.0
2018-Jul-14 19:28N 37°52' W 122°25'2 4.3
2018-Jul-14 19:01N 37°50' W 122°25'3 5.7
2018-Jul-14 18:30N 37°51' W 122°28'1 2.2
2018-Jul-14 17:58N 37°52' W 122°30'0 0.0
2018-Jul-14 03:36N 37°52' W 122°30'0 2.2
2018-Jul-14 03:30N 37°52' W 122°30'3 5.9
2018-Jul-14 03:00N 37°50' W 122°26'4 7.0
2018-Jul-14 02:29N 37°48' W 122°23'1 1.4
2018-Jul-14 01:58N 37°47' W 122°23'2 4.6
2018-Jul-14 01:30N 37°48' W 122°21'2 3.5
2018-Jul-14 01:00N 37°50' W 122°22'3 5.1
2018-Jul-14 00:30N 37°50' W 122°25'3 4.8
2018-Jul-13 23:59N 37°51' W 122°28'1 2.8
2018-Jul-13 23:30N 37°49' W 122°29'3 5.2
2018-Jul-13 23:00N 37°49' W 122°26'3 4.9
2018-Jul-13 22:28N 37°47' W 122°23'0 0.0
2018-Jul-13 21:55N 37°47' W 122°23'0 0.0
2018-Jul-13 21:28N 37°47' W 122°23'2 3.9
2018-Jul-13 21:00N 37°49' W 122°24'4 8.5
2018-Jul-13 20:30N 37°51' W 122°28'1 2.9
2018-Jul-13 19:59N 37°52' W 122°30'0 0.0
2018-Jul-13 02:30N 37°52' W 122°30'0 0.0
2018-Jul-13 02:00N 37°52' W 122°30'2 4.2
2018-Jul-13 01:30N 37°51' W 122°28'2 3.1
2018-Jul-13 00:58N 37°50' W 122°29'  

Dump ship's entire track history